EVA621 KLAX-RCTP
Flight info
| Callsign | EVA621 |
|---|---|
| Flight time | N/A |
| Altitude | 28000 |
| Route | SUMMR2 MCKEY DCT LIBBO DCT BRINY DCT BOARS DCT AMAKR DCT REDWD DCT TRYSH DCT 41N130W/N0492F300 43N140W 46N150W 48N160W 49N170W/N0484F320 48N180E 45N170E 39N160E/N0487F340 32N150E DCT UKATA DCT BIXAK/N0482F360 DCT DELTA DCT ONC Y525 KXC Y62 GANAS Y576 LILRA R595 GRACE GRACE1A |
| Aircraft | B77L/H-SDE1E2E3FGHIJ1J3J4J5LM1P2RWXYZ/LB1D1 |
Departure
| Time | 2026-05-04 01:11 |
|---|---|
| Airport | Los Angeles International Airport (KLAX) |
Arrival
| Time | N/A |
|---|---|
| Airport | Taiwan Taoyuan International Airport (RCTP) |
| Time | Latitude | Longitude | Altitude | Speed | Heading |
|---|---|---|---|---|---|
| 2026-05-04 00:28 | 33.93263 | -118.40476 | 99 ft | 0 kts | 173° |
| 2026-05-04 00:56 | 33.93265 | -118.40476 | 97 ft | 2 kts | 173° |
| 2026-05-04 00:57 | 33.93290 | -118.40480 | 96 ft | 4 kts | 173° |
| 2026-05-04 00:57 | 33.93317 | -118.40484 | 96 ft | 4 kts | 173° |
| 2026-05-04 00:57 | 33.93341 | -118.40488 | 96 ft | 1 kts | 173° |
| 2026-05-04 00:57 | 33.93356 | -118.40491 | 96 ft | 4 kts | 167° |
| 2026-05-04 00:58 | 33.93379 | -118.40501 | 98 ft | 4 kts | 127° |
| 2026-05-04 00:58 | 33.93383 | -118.40526 | 97 ft | 4 kts | 83° |
| 2026-05-04 00:58 | 33.93381 | -118.40551 | 95 ft | 0 kts | 83° |
| 2026-05-04 01:02 | 33.93381 | -118.40549 | 98 ft | 1 kts | 83° |
| 2026-05-04 01:02 | 33.93383 | -118.40527 | 94 ft | 6 kts | 83° |
| 2026-05-04 01:02 | 33.93388 | -118.40485 | 100 ft | 5 kts | 83° |
| 2026-05-04 01:03 | 33.93392 | -118.40442 | 101 ft | 5 kts | 83° |
| 2026-05-04 01:03 | 33.93399 | -118.40373 | 97 ft | 12 kts | 83° |
| 2026-05-04 01:03 | 33.93410 | -118.40267 | 99 ft | 13 kts | 83° |
| 2026-05-04 01:03 | 33.93421 | -118.40157 | 97 ft | 14 kts | 83° |
| 2026-05-04 01:04 | 33.93433 | -118.40038 | 99 ft | 15 kts | 83° |
| 2026-05-04 01:04 | 33.93446 | -118.39908 | 97 ft | 16 kts | 83° |
| 2026-05-04 01:04 | 33.93461 | -118.39769 | 100 ft | 17 kts | 82° |
| 2026-05-04 01:04 | 33.93475 | -118.39624 | 99 ft | 17 kts | 83° |
| 2026-05-04 01:05 | 33.93490 | -118.39480 | 98 ft | 17 kts | 83° |
| 2026-05-04 01:05 | 33.93505 | -118.39331 | 98 ft | 19 kts | 83° |
| 2026-05-04 01:05 | 33.93522 | -118.39169 | 100 ft | 20 kts | 83° |
| 2026-05-04 01:05 | 33.93539 | -118.39003 | 100 ft | 21 kts | 83° |
| 2026-05-04 01:06 | 33.93556 | -118.38829 | 97 ft | 20 kts | 83° |
| 2026-05-04 01:06 | 33.93572 | -118.38672 | 99 ft | 16 kts | 83° |
| 2026-05-04 01:06 | 33.93585 | -118.38547 | 98 ft | 13 kts | 83° |
| 2026-05-04 01:06 | 33.93597 | -118.38436 | 100 ft | 13 kts | 83° |
| 2026-05-04 01:07 | 33.93607 | -118.38340 | 99 ft | 8 kts | 83° |
| 2026-05-04 01:07 | 33.93624 | -118.38288 | 100 ft | 2 kts | 35° |
| 2026-05-04 01:07 | 33.93631 | -118.38286 | 101 ft | 0 kts | 17° |
| 2026-05-04 01:08 | 33.93654 | -118.38279 | 102 ft | 7 kts | 11° |
| 2026-05-04 01:09 | 33.93703 | -118.38279 | 102 ft | 7 kts | 353° |
| 2026-05-04 01:09 | 33.93736 | -118.38316 | 102 ft | 7 kts | 273° |
| 2026-05-04 01:09 | 33.93729 | -118.38350 | 104 ft | 0 kts | 261° |
| 2026-05-04 01:10 | 33.93724 | -118.38395 | 104 ft | 27 kts | 262° |
| 2026-05-04 01:10 | 33.93669 | -118.38940 | 97 ft | 103 kts | 263° |
| 2026-05-04 01:11 | 33.93552 | -118.40077 | 101 ft | 169 kts | 263° |
| 2026-05-04 01:11 | 33.93402 | -118.41626 | 377 ft | 189 kts | 262° |
| 2026-05-04 01:11 | 33.93259 | -118.43183 | 1093 ft | 187 kts | 263° |
| 2026-05-04 01:11 | 33.93142 | -118.44767 | 1767 ft | 191 kts | 265° |
| 2026-05-04 01:12 | 33.93057 | -118.46359 | 2243 ft | 194 kts | 265° |
| 2026-05-04 01:12 | 33.92970 | -118.48054 | 2357 ft | 211 kts | 266° |
| 2026-05-04 01:12 | 33.92887 | -118.49859 | 2549 ft | 223 kts | 264° |
| 2026-05-04 01:12 | 33.92731 | -118.51743 | 2982 ft | 230 kts | 264° |
| 2026-05-04 01:13 | 33.92553 | -118.53692 | 3411 ft | 239 kts | 264° |
| 2026-05-04 01:13 | 33.92376 | -118.55707 | 3900 ft | 243 kts | 264° |
| 2026-05-04 01:13 | 33.92198 | -118.57801 | 4154 ft | 259 kts | 264° |
| 2026-05-04 01:13 | 33.92012 | -118.60003 | 4633 ft | 268 kts | 264° |
| 2026-05-04 01:14 | 33.91826 | -118.62234 | 5287 ft | 267 kts | 264° |
| 2026-05-04 01:14 | 33.91715 | -118.64432 | 6023 ft | 265 kts | 269° |
| 2026-05-04 01:14 | 33.91711 | -118.66667 | 6643 ft | 267 kts | 270° |
| 2026-05-04 01:14 | 33.91722 | -118.68939 | 7101 ft | 274 kts | 270° |
| 2026-05-04 01:15 | 33.91730 | -118.71258 | 7648 ft | 277 kts | 269° |
| 2026-05-04 01:15 | 33.91731 | -118.73613 | 8092 ft | 285 kts | 268° |
| 2026-05-04 01:15 | 33.91727 | -118.75993 | 8735 ft | 284 kts | 268° |
| 2026-05-04 01:15 | 33.91718 | -118.78391 | 9298 ft | 288 kts | 268° |
| 2026-05-04 01:16 | 33.91707 | -118.80779 | 9850 ft | 290 kts | 267° |
| 2026-05-04 01:16 | 33.91696 | -118.83255 | 10314 ft | 296 kts | 267° |
| 2026-05-04 01:16 | 33.91732 | -118.85785 | 10435 ft | 315 kts | 269° |
| 2026-05-04 01:16 | 33.91824 | -118.88496 | 10586 ft | 333 kts | 270° |
| 2026-05-04 01:17 | 33.91925 | -118.91368 | 10739 ft | 351 kts | 270° |
| 2026-05-04 01:17 | 33.92022 | -118.94355 | 11116 ft | 361 kts | 270° |
| 2026-05-04 01:17 | 33.92114 | -118.97411 | 11606 ft | 368 kts | 270° |
| 2026-05-04 01:17 | 33.92249 | -119.00497 | 12162 ft | 370 kts | 276° |
| 2026-05-04 01:18 | 33.93056 | -119.03471 | 12598 ft | 382 kts | 298° |
| 2026-05-04 01:18 | 33.94523 | -119.06145 | 13074 ft | 385 kts | 300° |
| 2026-05-04 01:18 | 33.95986 | -119.08889 | 13655 ft | 389 kts | 299° |
| 2026-05-04 01:18 | 33.97399 | -119.11634 | 14268 ft | 390 kts | 298° |
| 2026-05-04 01:19 | 33.98826 | -119.14415 | 14959 ft | 389 kts | 298° |
| 2026-05-04 01:19 | 34.00254 | -119.17182 | 15634 ft | 387 kts | 299° |
| 2026-05-04 01:19 | 34.01985 | -119.19707 | 16070 ft | 400 kts | 316° |
| 2026-05-04 01:19 | 34.04281 | -119.21649 | 16372 ft | 408 kts | 322° |
| 2026-05-04 01:20 | 34.06647 | -119.23579 | 16825 ft | 412 kts | 321° |
| 2026-05-04 01:20 | 34.09005 | -119.25552 | 17507 ft | 410 kts | 320° |
| 2026-05-04 01:20 | 34.11339 | -119.27531 | 18154 ft | 410 kts | 319° |
| 2026-05-04 01:20 | 34.13670 | -119.29526 | 18640 ft | 412 kts | 319° |
| 2026-05-04 01:21 | 34.15989 | -119.31522 | 19063 ft | 415 kts | 318° |
| 2026-05-04 01:21 | 34.18341 | -119.33550 | 19532 ft | 417 kts | 317° |
| 2026-05-04 01:21 | 34.20707 | -119.35592 | 20012 ft | 418 kts | 317° |
| 2026-05-04 01:21 | 34.23088 | -119.37649 | 20446 ft | 422 kts | 317° |
| 2026-05-04 01:22 | 34.25481 | -119.39716 | 20872 ft | 424 kts | 317° |
| 2026-05-04 01:22 | 34.27885 | -119.41794 | 21341 ft | 425 kts | 316° |
| 2026-05-04 01:22 | 34.30294 | -119.43877 | 21809 ft | 426 kts | 316° |
| 2026-05-04 01:22 | 34.32709 | -119.45967 | 22277 ft | 428 kts | 315° |
| 2026-05-04 01:23 | 34.35129 | -119.48063 | 22716 ft | 429 kts | 315° |
| 2026-05-04 01:23 | 34.37538 | -119.50152 | 23136 ft | 431 kts | 315° |
| 2026-05-04 01:23 | 34.40019 | -119.52304 | 23585 ft | 433 kts | 314° |
| 2026-05-04 01:23 | 34.42290 | -119.54565 | 23929 ft | 421 kts | 304° |
| 2026-05-04 01:24 | 34.44219 | -119.57208 | 24246 ft | 417 kts | 301° |
| 2026-05-04 01:24 | 34.46067 | -119.59927 | 24609 ft | 418 kts | 300° |
| 2026-05-04 01:24 | 34.47904 | -119.62651 | 25051 ft | 418 kts | 300° |
| 2026-05-04 01:24 | 34.49755 | -119.65375 | 25449 ft | 419 kts | 300° |
| 2026-05-04 01:25 | 34.51628 | -119.68099 | 25827 ft | 420 kts | 301° |
| 2026-05-04 01:25 | 34.53517 | -119.70825 | 26082 ft | 424 kts | 301° |
| 2026-05-04 01:25 | 34.55435 | -119.73581 | 26348 ft | 428 kts | 301° |
| 2026-05-04 01:25 | 34.57371 | -119.76345 | 26724 ft | 430 kts | 301° |
| 2026-05-04 01:26 | 34.59309 | -119.79104 | 27141 ft | 429 kts | 301° |
| 2026-05-04 01:26 | 34.61250 | -119.81868 | 27512 ft | 431 kts | 301° |
| 2026-05-04 01:26 | 34.63178 | -119.84617 | 27821 ft | 433 kts | 301° |
| 2026-05-04 01:26 | 34.65146 | -119.87429 | 27916 ft | 438 kts | 301° |
| 2026-05-04 01:27 | 34.67131 | -119.90266 | 27992 ft | 440 kts | 301° |
| 2026-05-04 01:27 | 34.69126 | -119.93122 | 27987 ft | 444 kts | 301° |
| 2026-05-04 01:27 | 34.71132 | -119.95995 | 28015 ft | 448 kts | 301° |
| 2026-05-04 01:28 | 34.75181 | -120.01796 | 28014 ft | 450 kts | 301° |
| 2026-05-04 01:28 | 34.77215 | -120.04700 | 27992 ft | 450 kts | 301° |
| 2026-05-04 01:28 | 34.79210 | -120.07562 | 27999 ft | 448 kts | 301° |
| 2026-05-04 01:29 | 34.83240 | -120.13357 | 27991 ft | 448 kts | 301° |
| 2026-05-04 01:29 | 34.87260 | -120.19148 | 28021 ft | 447 kts | 301° |
| 2026-05-04 01:30 | 34.91278 | -120.24955 | 28014 ft | 449 kts | 301° |
| 2026-05-04 01:30 | 34.95299 | -120.30765 | 28022 ft | 450 kts | 301° |
| 2026-05-04 01:31 | 34.99331 | -120.36604 | 28035 ft | 450 kts | 301° |
| 2026-05-04 01:31 | 35.03374 | -120.42467 | 28036 ft | 451 kts | 301° |
| 2026-05-04 01:32 | 35.07393 | -120.48306 | 28030 ft | 451 kts | 301° |
| 2026-05-04 01:32 | 35.11440 | -120.54198 | 28022 ft | 450 kts | 301° |
| 2026-05-04 01:33 | 35.15453 | -120.60041 | 28012 ft | 450 kts | 301° |
| 2026-05-04 01:33 | 35.19471 | -120.65904 | 28025 ft | 449 kts | 301° |
| 2026-05-04 01:34 | 35.23488 | -120.71777 | 28018 ft | 448 kts | 300° |
| 2026-05-04 01:34 | 35.27465 | -120.77608 | 28008 ft | 447 kts | 300° |
| 2026-05-04 01:35 | 35.31452 | -120.83462 | 28022 ft | 447 kts | 300° |
| 2026-05-04 01:35 | 35.35444 | -120.89329 | 28040 ft | 448 kts | 300° |
| 2026-05-04 01:36 | 35.39416 | -120.95180 | 28028 ft | 448 kts | 300° |
| 2026-05-04 01:36 | 35.43415 | -121.01079 | 28036 ft | 449 kts | 300° |
| 2026-05-04 01:37 | 35.47413 | -121.06985 | 28029 ft | 450 kts | 300° |
| 2026-05-04 01:37 | 35.51423 | -121.12836 | 28052 ft | 451 kts | 301° |
| 2026-05-04 01:38 | 35.55516 | -121.18695 | 28035 ft | 451 kts | 301° |
| 2026-05-04 01:38 | 35.59603 | -121.24556 | 28024 ft | 451 kts | 301° |
| 2026-05-04 01:39 | 35.63678 | -121.30428 | 28024 ft | 451 kts | 301° |
| 2026-05-04 01:39 | 35.67729 | -121.36287 | 28024 ft | 452 kts | 302° |
| 2026-05-04 01:40 | 35.71812 | -121.42202 | 28032 ft | 453 kts | 302° |
| 2026-05-04 01:40 | 35.75220 | -121.47146 | 28021 ft | 455 kts | 302° |
| 2026-05-04 01:41 | 35.79306 | -121.53079 | 28033 ft | 456 kts | 301° |
| 2026-05-04 01:41 | 35.83416 | -121.59059 | 28029 ft | 457 kts | 302° |
| 2026-05-04 01:42 | 35.87526 | -121.65049 | 28033 ft | 458 kts | 302° |
| 2026-05-04 01:42 | 35.91638 | -121.71054 | 28027 ft | 459 kts | 302° |
| 2026-05-04 01:43 | 35.95759 | -121.77082 | 28027 ft | 459 kts | 302° |
| 2026-05-04 01:43 | 36.00343 | -121.82640 | 28047 ft | 474 kts | 315° |
| 2026-05-04 01:44 | 36.05933 | -121.87166 | 28028 ft | 489 kts | 326° |
| 2026-05-04 01:44 | 36.12043 | -121.90942 | 28036 ft | 492 kts | 326° |
| 2026-05-04 01:45 | 36.18191 | -121.94706 | 28029 ft | 493 kts | 326° |
| 2026-05-04 01:45 | 36.27366 | -122.00419 | 28034 ft | 490 kts | 326° |
| 2026-05-04 01:46 | 36.33457 | -122.04249 | 28035 ft | 489 kts | 327° |
| 2026-05-04 01:46 | 36.39533 | -122.08076 | 28057 ft | 489 kts | 327° |
| 2026-05-04 01:47 | 36.45606 | -122.11909 | 28050 ft | 490 kts | 327° |
| 2026-05-04 01:47 | 36.51693 | -122.15760 | 28045 ft | 491 kts | 328° |
| 2026-05-04 01:48 | 36.57752 | -122.19595 | 28041 ft | 492 kts | 328° |
| 2026-05-04 01:48 | 36.63865 | -122.23471 | 28036 ft | 493 kts | 328° |
| 2026-05-04 01:49 | 36.69994 | -122.27367 | 28034 ft | 495 kts | 330° |
| 2026-05-04 01:49 | 36.76135 | -122.31274 | 28032 ft | 495 kts | 330° |
| 2026-05-04 01:50 | 36.82286 | -122.35196 | 28042 ft | 496 kts | 329° |
| 2026-05-04 01:50 | 36.88424 | -122.39118 | 28021 ft | 496 kts | 331° |
| 2026-05-04 01:51 | 36.94550 | -122.43039 | 28025 ft | 497 kts | 331° |
| 2026-05-04 01:51 | 37.00715 | -122.46992 | 28022 ft | 497 kts | 332° |
| 2026-05-04 01:52 | 37.06877 | -122.50952 | 28013 ft | 498 kts | 332° |
| 2026-05-04 01:52 | 37.13042 | -122.54919 | 28007 ft | 498 kts | 332° |
| 2026-05-04 01:53 | 37.16138 | -122.56914 | 28000 ft | 498 kts | 332° |
| 2026-05-04 01:53 | 37.19223 | -122.58906 | 28000 ft | 499 kts | 334° |
| 2026-05-04 01:53 | 37.22318 | -122.60906 | 27993 ft | 499 kts | 334° |
| 2026-05-04 01:53 | 37.25412 | -122.62905 | 28022 ft | 500 kts | 333° |
| 2026-05-04 01:54 | 37.31580 | -122.66822 | 28009 ft | 499 kts | 336° |
| 2026-05-04 01:54 | 37.34775 | -122.68515 | 27986 ft | 499 kts | 339° |
| 2026-05-04 01:54 | 37.38011 | -122.70110 | 28005 ft | 498 kts | 342° |
| 2026-05-04 01:55 | 37.44514 | -122.73238 | 28018 ft | 499 kts | 342° |
| 2026-05-04 01:55 | 37.50962 | -122.76400 | 28016 ft | 501 kts | 341° |
| 2026-05-04 01:56 | 37.54208 | -122.78019 | 27996 ft | 502 kts | 343° |
| 2026-05-04 01:56 | 37.57461 | -122.79650 | 28005 ft | 502 kts | 343° |
| 2026-05-04 01:56 | 37.63976 | -122.82926 | 27993 ft | 504 kts | 343° |
| 2026-05-04 01:57 | 37.67239 | -122.84568 | 27996 ft | 504 kts | 343° |
| 2026-05-04 01:57 | 37.70465 | -122.86193 | 27987 ft | 504 kts | 344° |
| 2026-05-04 01:57 | 37.73731 | -122.87839 | 27996 ft | 504 kts | 344° |
| 2026-05-04 01:57 | 37.76998 | -122.89486 | 28003 ft | 503 kts | 344° |
| 2026-05-04 01:58 | 37.80213 | -122.91109 | 27994 ft | 503 kts | 344° |
| 2026-05-04 01:58 | 37.83459 | -122.92749 | 27992 ft | 503 kts | 344° |
| 2026-05-04 01:58 | 37.86716 | -122.94395 | 28000 ft | 502 kts | 344° |
| 2026-05-04 01:58 | 37.89966 | -122.96040 | 27999 ft | 502 kts | 344° |
| 2026-05-04 01:59 | 37.93212 | -122.97684 | 28000 ft | 502 kts | 344° |
| 2026-05-04 01:59 | 37.96457 | -122.99329 | 28000 ft | 502 kts | 344° |
| 2026-05-04 01:59 | 37.99700 | -123.00976 | 27998 ft | 501 kts | 344° |
| 2026-05-04 01:59 | 38.02948 | -123.02626 | 28000 ft | 501 kts | 344° |
| 2026-05-04 02:00 | 38.06147 | -123.04254 | 27982 ft | 501 kts | 344° |
| 2026-05-04 02:00 | 38.09383 | -123.05902 | 27995 ft | 500 kts | 344° |
| 2026-05-04 02:00 | 38.12608 | -123.07546 | 27989 ft | 500 kts | 344° |
| 2026-05-04 02:00 | 38.15839 | -123.09193 | 27995 ft | 500 kts | 344° |
| 2026-05-04 02:01 | 38.19063 | -123.10838 | 27996 ft | 499 kts | 344° |
| 2026-05-04 02:01 | 38.22279 | -123.12560 | 27974 ft | 502 kts | 341° |
| 2026-05-04 02:01 | 38.25380 | -123.14654 | 27977 ft | 508 kts | 334° |
| 2026-05-04 02:01 | 38.28380 | -123.17059 | 28009 ft | 509 kts | 333° |
| 2026-05-04 02:02 | 38.31370 | -123.19496 | 27986 ft | 510 kts | 333° |
| 2026-05-04 02:02 | 38.34354 | -123.21928 | 27993 ft | 510 kts | 333° |
| 2026-05-04 02:02 | 38.37320 | -123.24333 | 27958 ft | 510 kts | 333° |
| 2026-05-04 02:02 | 38.40329 | -123.26759 | 27981 ft | 511 kts | 334° |
| 2026-05-04 02:03 | 38.43335 | -123.29173 | 27991 ft | 512 kts | 334° |
| 2026-05-04 02:03 | 38.46359 | -123.31596 | 27992 ft | 513 kts | 334° |
| 2026-05-04 02:03 | 38.49384 | -123.34020 | 27992 ft | 514 kts | 334° |
| 2026-05-04 02:03 | 38.52417 | -123.36452 | 27992 ft | 514 kts | 334° |
| 2026-05-04 02:04 | 38.55449 | -123.38890 | 27983 ft | 515 kts | 334° |
| 2026-05-04 02:04 | 38.58485 | -123.41336 | 27993 ft | 515 kts | 333° |
| 2026-05-04 02:04 | 38.61483 | -123.43752 | 27993 ft | 515 kts | 333° |
| 2026-05-04 02:04 | 38.64519 | -123.46201 | 27991 ft | 515 kts | 333° |
| 2026-05-04 02:05 | 38.67549 | -123.48646 | 27995 ft | 515 kts | 333° |
| 2026-05-04 02:05 | 38.70582 | -123.51097 | 27986 ft | 514 kts | 333° |
| 2026-05-04 02:05 | 38.73612 | -123.53547 | 27989 ft | 513 kts | 333° |
| 2026-05-04 02:05 | 38.76632 | -123.55993 | 27991 ft | 513 kts | 333° |
| 2026-05-04 02:06 | 38.79645 | -123.58436 | 27994 ft | 512 kts | 333° |
| 2026-05-04 02:06 | 38.82651 | -123.60874 | 27993 ft | 511 kts | 333° |
| 2026-05-04 02:06 | 38.85668 | -123.63325 | 27984 ft | 510 kts | 333° |
| 2026-05-04 02:06 | 38.88659 | -123.65757 | 27988 ft | 509 kts | 333° |
| 2026-05-04 02:07 | 38.91618 | -123.68164 | 27988 ft | 509 kts | 333° |
| 2026-05-04 02:07 | 38.94608 | -123.70599 | 28000 ft | 508 kts | 333° |
| 2026-05-04 02:07 | 38.97495 | -123.73284 | 27995 ft | 514 kts | 323° |
| 2026-05-04 02:07 | 39.00016 | -123.76594 | 27995 ft | 520 kts | 313° |
| 2026-05-04 02:08 | 39.03839 | -123.84552 | 28018 ft | 526 kts | 298° |
| 2026-05-04 02:08 | 39.06931 | -123.93027 | 28007 ft | 527 kts | 298° |
| 2026-05-04 02:09 | 39.10069 | -124.01548 | 27998 ft | 527 kts | 298° |
| 2026-05-04 02:09 | 39.13260 | -124.10066 | 28006 ft | 526 kts | 298° |
| 2026-05-04 02:10 | 39.16432 | -124.18491 | 28002 ft | 525 kts | 298° |
| 2026-05-04 02:10 | 39.19614 | -124.26966 | 27979 ft | 525 kts | 298° |
| 2026-05-04 02:11 | 39.21204 | -124.31212 | 27999 ft | 524 kts | 298° |
| 2026-05-04 02:11 | 39.22773 | -124.35412 | 27996 ft | 523 kts | 298° |
| 2026-05-04 02:11 | 39.24369 | -124.39693 | 27999 ft | 523 kts | 298° |
| 2026-05-04 02:11 | 39.25924 | -124.43868 | 27996 ft | 523 kts | 298° |
| 2026-05-04 02:12 | 39.29072 | -124.52341 | 27998 ft | 523 kts | 298° |
| 2026-05-04 02:12 | 39.30645 | -124.56584 | 27997 ft | 523 kts | 298° |
| 2026-05-04 02:12 | 39.32218 | -124.60831 | 27999 ft | 524 kts | 298° |
| 2026-05-04 02:13 | 39.33790 | -124.65082 | 27998 ft | 524 kts | 298° |
| 2026-05-04 02:13 | 39.35339 | -124.69279 | 27998 ft | 524 kts | 298° |
| 2026-05-04 02:13 | 39.38487 | -124.77821 | 28003 ft | 525 kts | 298° |
| 2026-05-04 02:14 | 39.40065 | -124.82113 | 27986 ft | 525 kts | 298° |
| 2026-05-04 02:14 | 39.41612 | -124.86329 | 27995 ft | 525 kts | 298° |
| 2026-05-04 02:14 | 39.43185 | -124.90620 | 27998 ft | 525 kts | 298° |
| 2026-05-04 02:14 | 39.44750 | -124.94896 | 27997 ft | 525 kts | 298° |
| 2026-05-04 02:15 | 39.46312 | -124.99168 | 27995 ft | 525 kts | 298° |
| 2026-05-04 02:15 | 39.47855 | -125.03396 | 27994 ft | 525 kts | 298° |
| 2026-05-04 02:15 | 39.49415 | -125.07677 | 27981 ft | 524 kts | 298° |
| 2026-05-04 02:15 | 39.50969 | -125.11948 | 27993 ft | 524 kts | 298° |
| 2026-05-04 02:16 | 39.54073 | -125.20495 | 27985 ft | 523 kts | 298° |
| 2026-05-04 02:16 | 39.55622 | -125.24769 | 27987 ft | 523 kts | 298° |
| 2026-05-04 02:16 | 39.57172 | -125.29055 | 28006 ft | 523 kts | 298° |
| 2026-05-04 02:17 | 39.58703 | -125.33292 | 27979 ft | 523 kts | 298° |
| 2026-05-04 02:17 | 39.60248 | -125.37575 | 28003 ft | 523 kts | 298° |
| 2026-05-04 02:17 | 39.61788 | -125.41851 | 27997 ft | 523 kts | 298° |
| 2026-05-04 02:17 | 39.63314 | -125.46092 | 27984 ft | 524 kts | 298° |
| 2026-05-04 02:18 | 39.64858 | -125.50391 | 27992 ft | 524 kts | 298° |
| 2026-05-04 02:18 | 39.66396 | -125.54677 | 27994 ft | 525 kts | 298° |
| 2026-05-04 02:18 | 39.67940 | -125.58987 | 27980 ft | 525 kts | 298° |
| 2026-05-04 02:18 | 39.69477 | -125.63286 | 27988 ft | 526 kts | 298° |
| 2026-05-04 02:19 | 39.71015 | -125.67594 | 27992 ft | 526 kts | 298° |
| 2026-05-04 02:19 | 39.72553 | -125.71910 | 27993 ft | 526 kts | 298° |
| 2026-05-04 02:19 | 39.74097 | -125.76245 | 27985 ft | 527 kts | 298° |
| 2026-05-04 02:19 | 39.75635 | -125.80572 | 27987 ft | 527 kts | 297° |
| 2026-05-04 02:20 | 39.77170 | -125.84898 | 27982 ft | 527 kts | 297° |
| 2026-05-04 02:20 | 39.78705 | -125.89226 | 27969 ft | 527 kts | 297° |
| 2026-05-04 02:20 | 39.80237 | -125.93557 | 27976 ft | 526 kts | 297° |
| 2026-05-04 02:20 | 39.81767 | -125.97886 | 27981 ft | 526 kts | 297° |
| 2026-05-04 02:21 | 39.83295 | -126.02219 | 27984 ft | 526 kts | 297° |
| 2026-05-04 02:21 | 39.84801 | -126.06493 | 27982 ft | 526 kts | 297° |
| 2026-05-04 02:21 | 39.86328 | -126.10834 | 27979 ft | 526 kts | 297° |
| 2026-05-04 02:21 | 39.87851 | -126.15170 | 27963 ft | 526 kts | 297° |
| 2026-05-04 02:22 | 39.89368 | -126.19496 | 27971 ft | 525 kts | 297° |
| 2026-05-04 02:22 | 39.90885 | -126.23828 | 27979 ft | 525 kts | 297° |
| 2026-05-04 02:22 | 39.92395 | -126.28148 | 27983 ft | 525 kts | 297° |
| 2026-05-04 02:22 | 39.93400 | -126.31024 | 27986 ft | 525 kts | 297° |
| 2026-05-04 02:23 | 39.94913 | -126.35362 | 27981 ft | 525 kts | 297° |
| 2026-05-04 02:23 | 39.96426 | -126.39706 | 27985 ft | 525 kts | 297° |
| 2026-05-04 02:23 | 39.97936 | -126.44047 | 27977 ft | 525 kts | 297° |
| 2026-05-04 02:23 | 39.99422 | -126.48326 | 27978 ft | 525 kts | 297° |
| 2026-05-04 02:24 | 40.00926 | -126.52732 | 27979 ft | 525 kts | 295° |
| 2026-05-04 02:24 | 40.02288 | -126.57080 | 27983 ft | 526 kts | 294° |
| 2026-05-04 02:24 | 40.03611 | -126.61541 | 27986 ft | 526 kts | 293° |
| 2026-05-04 02:24 | 40.04922 | -126.66024 | 27985 ft | 526 kts | 293° |
| 2026-05-04 02:25 | 40.06235 | -126.70481 | 27981 ft | 526 kts | 294° |
| 2026-05-04 02:25 | 40.07562 | -126.74932 | 27969 ft | 526 kts | 294° |
| 2026-05-04 02:25 | 40.08887 | -126.79339 | 27974 ft | 526 kts | 294° |
| 2026-05-04 02:25 | 40.10234 | -126.83800 | 27974 ft | 526 kts | 294° |
| 2026-05-04 02:26 | 40.11576 | -126.88249 | 27984 ft | 525 kts | 294° |
| 2026-05-04 02:26 | 40.12912 | -126.92691 | 27982 ft | 525 kts | 294° |
| 2026-05-04 02:26 | 40.14244 | -126.97133 | 27980 ft | 525 kts | 294° |
| 2026-05-04 02:26 | 40.15580 | -127.01595 | 27967 ft | 525 kts | 294° |
| 2026-05-04 02:27 | 40.16896 | -127.05997 | 27979 ft | 525 kts | 294° |
| 2026-05-04 02:27 | 40.18222 | -127.10436 | 27983 ft | 524 kts | 294° |
| 2026-05-04 02:27 | 40.19550 | -127.14889 | 27982 ft | 524 kts | 294° |
| 2026-05-04 02:27 | 40.20878 | -127.19347 | 27980 ft | 524 kts | 294° |
| 2026-05-04 02:28 | 40.22201 | -127.23797 | 27975 ft | 524 kts | 294° |
| 2026-05-04 02:28 | 40.23523 | -127.28250 | 27990 ft | 524 kts | 294° |
| 2026-05-04 02:28 | 40.24843 | -127.32706 | 27975 ft | 524 kts | 294° |
| 2026-05-04 02:28 | 40.26160 | -127.37158 | 27973 ft | 524 kts | 294° |
| 2026-05-04 02:29 | 40.27461 | -127.41566 | 27992 ft | 524 kts | 294° |
| 2026-05-04 02:29 | 40.28778 | -127.46035 | 28070 ft | 528 kts | 294° |
| 2026-05-04 02:29 | 40.30105 | -127.50540 | 28406 ft | 529 kts | 293° |
| 2026-05-04 02:29 | 40.31422 | -127.55029 | 28903 ft | 526 kts | 293° |
| 2026-05-04 02:30 | 40.32730 | -127.59492 | 29375 ft | 524 kts | 293° |
| 2026-05-04 02:30 | 40.34037 | -127.63957 | 29773 ft | 523 kts | 293° |
| 2026-05-04 02:30 | 40.35341 | -127.68418 | 29947 ft | 525 kts | 293° |
| 2026-05-04 02:30 | 40.36638 | -127.72864 | 29979 ft | 526 kts | 293° |
| 2026-05-04 02:31 | 40.39247 | -127.81830 | 29981 ft | 523 kts | 293° |
| 2026-05-04 02:31 | 40.41815 | -127.90688 | 29946 ft | 520 kts | 293° |
| 2026-05-04 02:32 | 40.44377 | -127.99554 | 29972 ft | 518 kts | 292° |
| 2026-05-04 02:32 | 40.46930 | -128.08416 | 29991 ft | 517 kts | 292° |
| 2026-05-04 02:33 | 40.49454 | -128.17207 | 29985 ft | 518 kts | 292° |
| 2026-05-04 02:33 | 40.51998 | -128.26097 | 29984 ft | 518 kts | 292° |
| 2026-05-04 02:34 | 40.54521 | -128.34948 | 29984 ft | 519 kts | 292° |
| 2026-05-04 02:34 | 40.57055 | -128.43866 | 29983 ft | 519 kts | 292° |
| 2026-05-04 02:35 | 40.59584 | -128.52803 | 29969 ft | 519 kts | 292° |
| 2026-05-04 02:35 | 40.62076 | -128.61637 | 29973 ft | 517 kts | 292° |
| 2026-05-04 02:36 | 40.64571 | -128.70509 | 29978 ft | 515 kts | 292° |
| 2026-05-04 02:36 | 40.67047 | -128.79345 | 29982 ft | 514 kts | 292° |
| 2026-05-04 02:37 | 40.69510 | -128.88167 | 29976 ft | 512 kts | 292° |
| 2026-05-04 02:37 | 40.71964 | -128.96984 | 29982 ft | 512 kts | 292° |
| 2026-05-04 02:38 | 40.74406 | -129.05789 | 29985 ft | 512 kts | 292° |
| 2026-05-04 02:38 | 40.76843 | -129.14609 | 29981 ft | 512 kts | 292° |
| 2026-05-04 02:39 | 40.79274 | -129.23436 | 29986 ft | 511 kts | 292° |
| 2026-05-04 02:39 | 40.81695 | -129.32260 | 29990 ft | 511 kts | 292° |
| 2026-05-04 02:40 | 40.84109 | -129.41088 | 29991 ft | 511 kts | 292° |
| 2026-05-04 02:40 | 40.86514 | -129.49913 | 29991 ft | 510 kts | 292° |
| 2026-05-04 02:41 | 40.88904 | -129.58719 | 29989 ft | 509 kts | 292° |
| 2026-05-04 02:41 | 40.91286 | -129.67521 | 29996 ft | 508 kts | 292° |
| 2026-05-04 02:42 | 40.93656 | -129.76313 | 29998 ft | 507 kts | 292° |
| 2026-05-04 02:42 | 40.96016 | -129.85097 | 29998 ft | 506 kts | 292° |
| 2026-05-04 02:43 | 40.98366 | -129.93873 | 30006 ft | 506 kts | 292° |
| 2026-05-04 02:43 | 41.00700 | -130.02658 | 30008 ft | 506 kts | 291° |
| 2026-05-04 02:44 | 41.02922 | -130.11494 | 30009 ft | 506 kts | 290° |
| 2026-05-04 02:44 | 41.05099 | -130.20348 | 30012 ft | 505 kts | 290° |
| 2026-05-04 02:45 | 41.07274 | -130.29181 | 30016 ft | 504 kts | 290° |
| 2026-05-04 02:45 | 41.09453 | -130.38011 | 30016 ft | 504 kts | 290° |
| 2026-05-04 02:46 | 41.11629 | -130.46842 | 30021 ft | 504 kts | 290° |
| 2026-05-04 02:46 | 41.13799 | -130.55683 | 30025 ft | 504 kts | 290° |
| 2026-05-04 02:47 | 41.15960 | -130.64524 | 30025 ft | 504 kts | 290° |
| 2026-05-04 02:47 | 41.18117 | -130.73382 | 30020 ft | 504 kts | 290° |
| 2026-05-04 02:48 | 41.20267 | -130.82247 | 30025 ft | 504 kts | 290° |
| 2026-05-04 02:48 | 41.22408 | -130.91109 | 30036 ft | 504 kts | 290° |
| 2026-05-04 02:49 | 41.24546 | -130.99988 | 30034 ft | 504 kts | 290° |
| 2026-05-04 02:49 | 41.26674 | -131.08867 | 30028 ft | 504 kts | 290° |
| 2026-05-04 02:50 | 41.28794 | -131.17742 | 30045 ft | 504 kts | 290° |
| 2026-05-04 02:50 | 41.30911 | -131.26638 | 30043 ft | 504 kts | 290° |
| 2026-05-04 02:51 | 41.33019 | -131.35534 | 30044 ft | 504 kts | 290° |
| 2026-05-04 02:51 | 41.35122 | -131.44444 | 30045 ft | 505 kts | 290° |
| 2026-05-04 02:52 | 41.37223 | -131.53375 | 30058 ft | 506 kts | 290° |
| 2026-05-04 02:52 | 41.39319 | -131.62319 | 30053 ft | 507 kts | 290° |
| 2026-05-04 02:53 | 41.41410 | -131.71288 | 30044 ft | 507 kts | 291° |
| 2026-05-04 02:53 | 41.43499 | -131.80280 | 30073 ft | 509 kts | 291° |
| 2026-05-04 02:54 | 41.45591 | -131.89314 | 30066 ft | 511 kts | 291° |
| 2026-05-04 02:54 | 41.47683 | -131.98383 | 30065 ft | 513 kts | 291° |
| 2026-05-04 02:55 | 41.50817 | -132.12047 | 30081 ft | 515 kts | 292° |
| 2026-05-04 02:56 | 41.52907 | -132.21206 | 30089 ft | 517 kts | 292° |
| 2026-05-04 02:56 | 41.54995 | -132.30397 | 30086 ft | 518 kts | 292° |
| 2026-05-04 02:57 | 41.57080 | -132.39618 | 30052 ft | 518 kts | 292° |
| 2026-05-04 02:57 | 41.59151 | -132.48816 | 30074 ft | 516 kts | 292° |
| 2026-05-04 02:58 | 41.61208 | -132.57983 | 30079 ft | 515 kts | 292° |
| 2026-05-04 02:58 | 41.63254 | -132.67138 | 30078 ft | 513 kts | 292° |
| 2026-05-04 02:59 | 41.65287 | -132.76274 | 30084 ft | 512 kts | 292° |
| 2026-05-04 02:59 | 41.67308 | -132.85395 | 30093 ft | 511 kts | 292° |
| 2026-05-04 03:00 | 41.69320 | -132.94508 | 30094 ft | 511 kts | 292° |
| 2026-05-04 03:00 | 41.71328 | -133.03643 | 30073 ft | 512 kts | 292° |
| 2026-05-04 03:01 | 41.73328 | -133.12785 | 30104 ft | 512 kts | 292° |
| 2026-05-04 03:01 | 41.75320 | -133.21929 | 30110 ft | 512 kts | 292° |
| 2026-05-04 03:02 | 41.77295 | -133.31031 | 30091 ft | 512 kts | 292° |
| 2026-05-04 03:02 | 41.79290 | -133.40265 | 30098 ft | 512 kts | 292° |
| 2026-05-04 03:03 | 41.81248 | -133.49369 | 30106 ft | 512 kts | 292° |
| 2026-05-04 03:03 | 41.83212 | -133.58539 | 30115 ft | 512 kts | 292° |
| 2026-05-04 03:04 | 41.85166 | -133.67703 | 30120 ft | 511 kts | 292° |
| 2026-05-04 03:04 | 41.86799 | -133.75392 | 30122 ft | 511 kts | 292° |
| 2026-05-04 03:05 | 41.88741 | -133.84572 | 30123 ft | 511 kts | 292° |
| 2026-05-04 03:05 | 41.90989 | -133.95249 | 30125 ft | 511 kts | 292° |
| 2026-05-04 03:06 | 41.92601 | -134.02942 | 30115 ft | 510 kts | 292° |
| 2026-05-04 03:06 | 41.94511 | -134.12096 | 30127 ft | 507 kts | 292° |
| 2026-05-04 03:07 | 41.96405 | -134.21209 | 30128 ft | 505 kts | 292° |
| 2026-05-04 03:07 | 41.98286 | -134.30297 | 30132 ft | 504 kts | 292° |
| 2026-05-04 03:08 | 42.00155 | -134.39363 | 30142 ft | 503 kts | 292° |
| 2026-05-04 03:08 | 42.02030 | -134.48486 | 30139 ft | 510 kts | 292° |
| 2026-05-04 03:09 | 42.03920 | -134.57728 | 30139 ft | 512 kts | 291° |
| 2026-05-04 03:09 | 42.05791 | -134.66950 | 30142 ft | 511 kts | 291° |
| 2026-05-04 03:10 | 42.07654 | -134.76166 | 30123 ft | 510 kts | 291° |
| 2026-05-04 03:10 | 42.09506 | -134.85362 | 30147 ft | 508 kts | 291° |
| 2026-05-04 03:11 | 42.11348 | -134.94547 | 30151 ft | 508 kts | 291° |
| 2026-05-04 03:11 | 42.13187 | -135.03753 | 30154 ft | 509 kts | 291° |
| 2026-05-04 03:12 | 42.15017 | -135.12961 | 30142 ft | 509 kts | 290° |
| 2026-05-04 03:12 | 42.16838 | -135.22169 | 30154 ft | 508 kts | 290° |
| 2026-05-04 03:13 | 42.18651 | -135.31380 | 30163 ft | 508 kts | 290° |
| 2026-05-04 03:13 | 42.20456 | -135.40589 | 30163 ft | 508 kts | 290° |
| 2026-05-04 03:14 | 42.22250 | -135.49797 | 30160 ft | 506 kts | 289° |
| 2026-05-04 03:14 | 42.24019 | -135.58907 | 30152 ft | 504 kts | 289° |
| 2026-05-04 03:15 | 42.25782 | -135.68029 | 30159 ft | 501 kts | 289° |
| 2026-05-04 03:15 | 42.27530 | -135.77117 | 30166 ft | 499 kts | 289° |
| 2026-05-04 03:16 | 42.29265 | -135.86173 | 30167 ft | 497 kts | 289° |
| 2026-05-04 03:16 | 42.30987 | -135.95211 | 30173 ft | 496 kts | 289° |
| 2026-05-04 03:17 | 42.32701 | -136.04245 | 30180 ft | 496 kts | 289° |
| 2026-05-04 03:17 | 42.34410 | -136.13295 | 30180 ft | 497 kts | 288° |
| 2026-05-04 03:18 | 42.36113 | -136.22354 | 30190 ft | 497 kts | 288° |
| 2026-05-04 03:18 | 42.37808 | -136.31421 | 30192 ft | 497 kts | 288° |
| 2026-05-04 03:19 | 42.39495 | -136.40486 | 30179 ft | 497 kts | 288° |
| 2026-05-04 03:19 | 42.41175 | -136.49557 | 30181 ft | 497 kts | 288° |
| 2026-05-04 03:20 | 42.42845 | -136.58614 | 30194 ft | 495 kts | 287° |
| 2026-05-04 03:20 | 42.44503 | -136.67653 | 30191 ft | 494 kts | 287° |
| 2026-05-04 03:21 | 42.46149 | -136.76670 | 30196 ft | 493 kts | 287° |
| 2026-05-04 03:21 | 42.47786 | -136.85676 | 30197 ft | 492 kts | 287° |
| 2026-05-04 03:22 | 42.49413 | -136.94671 | 30184 ft | 491 kts | 287° |
| 2026-05-04 03:22 | 42.51030 | -137.03659 | 30196 ft | 491 kts | 287° |
| 2026-05-04 03:23 | 42.52639 | -137.12645 | 30199 ft | 491 kts | 287° |
| 2026-05-04 03:23 | 42.54243 | -137.21646 | 30199 ft | 491 kts | 287° |
| 2026-05-04 03:24 | 42.55840 | -137.30647 | 30204 ft | 491 kts | 286° |
| 2026-05-04 03:24 | 42.57429 | -137.39651 | 30204 ft | 491 kts | 286° |
| 2026-05-04 03:25 | 42.59009 | -137.48654 | 30201 ft | 490 kts | 286° |
| 2026-05-04 03:25 | 42.60584 | -137.57665 | 30208 ft | 490 kts | 286° |
| 2026-05-04 03:26 | 42.62147 | -137.66656 | 30204 ft | 489 kts | 285° |
| 2026-05-04 03:26 | 42.63703 | -137.75656 | 30209 ft | 489 kts | 285° |
| 2026-05-04 03:27 | 42.65249 | -137.84639 | 30208 ft | 488 kts | 285° |
| 2026-05-04 03:27 | 42.66786 | -137.93613 | 30213 ft | 488 kts | 285° |
| 2026-05-04 03:28 | 42.68316 | -138.02592 | 30210 ft | 487 kts | 285° |
| 2026-05-04 03:28 | 42.69829 | -138.11518 | 30208 ft | 488 kts | 284° |
| 2026-05-04 03:29 | 42.71344 | -138.20504 | 30216 ft | 488 kts | 284° |
| 2026-05-04 03:29 | 42.72856 | -138.29510 | 30214 ft | 489 kts | 284° |
| 2026-05-04 03:30 | 42.74361 | -138.38528 | 30219 ft | 489 kts | 284° |
| 2026-05-04 03:30 | 42.75862 | -138.47567 | 30221 ft | 490 kts | 284° |
| 2026-05-04 03:31 | 42.77358 | -138.56619 | 30222 ft | 490 kts | 284° |
| 2026-05-04 03:31 | 42.78846 | -138.65681 | 30222 ft | 491 kts | 284° |
| 2026-05-04 03:32 | 42.80327 | -138.74753 | 30223 ft | 491 kts | 283° |
| 2026-05-04 03:32 | 42.81804 | -138.83834 | 30231 ft | 491 kts | 283° |
| 2026-05-04 03:33 | 42.83273 | -138.92900 | 30222 ft | 491 kts | 283° |
| 2026-05-04 03:33 | 42.84733 | -139.01979 | 30227 ft | 490 kts | 283° |
| 2026-05-04 03:34 | 42.86185 | -139.11054 | 30228 ft | 490 kts | 282° |
| 2026-05-04 03:34 | 42.87629 | -139.20123 | 30220 ft | 490 kts | 282° |
| 2026-05-04 03:35 | 42.89063 | -139.29190 | 30224 ft | 489 kts | 282° |
| 2026-05-04 03:35 | 42.90490 | -139.38260 | 30233 ft | 489 kts | 282° |
| 2026-05-04 03:36 | 42.91912 | -139.47342 | 30230 ft | 490 kts | 281° |
| 2026-05-04 03:36 | 42.93328 | -139.56438 | 30233 ft | 490 kts | 281° |
| 2026-05-04 03:37 | 42.94737 | -139.65539 | 30231 ft | 490 kts | 281° |
| 2026-05-04 03:37 | 42.96140 | -139.74660 | 30231 ft | 491 kts | 281° |
| 2026-05-04 03:38 | 42.97536 | -139.83777 | 30236 ft | 491 kts | 280° |
| 2026-05-04 03:38 | 42.98927 | -139.92906 | 30233 ft | 491 kts | 280° |
| 2026-05-04 03:39 | 43.00739 | -140.01907 | 30236 ft | 493 kts | 289° |
| 2026-05-04 03:39 | 43.03641 | -140.10392 | 30248 ft | 493 kts | 295° |
| 2026-05-04 03:40 | 43.06717 | -140.18782 | 30238 ft | 494 kts | 295° |
| 2026-05-04 03:40 | 43.09763 | -140.27195 | 30239 ft | 493 kts | 294° |
| 2026-05-04 03:41 | 43.12782 | -140.35634 | 30239 ft | 493 kts | 294° |
| 2026-05-04 03:41 | 43.15783 | -140.44076 | 30246 ft | 493 kts | 294° |
| 2026-05-04 03:42 | 43.18774 | -140.52514 | 30235 ft | 492 kts | 294° |
| 2026-05-04 03:42 | 43.21763 | -140.60966 | 30237 ft | 492 kts | 294° |
| 2026-05-04 03:43 | 43.24740 | -140.69409 | 30236 ft | 492 kts | 294° |
| 2026-05-04 03:43 | 43.27708 | -140.77851 | 30240 ft | 491 kts | 294° |
| 2026-05-04 03:44 | 43.30667 | -140.86298 | 30239 ft | 491 kts | 294° |
| 2026-05-04 03:44 | 43.33624 | -140.94762 | 30240 ft | 491 kts | 294° |
| 2026-05-04 03:45 | 43.36573 | -141.03230 | 30244 ft | 491 kts | 293° |
| 2026-05-04 03:45 | 43.39018 | -141.10269 | 30235 ft | 491 kts | 293° |
| 2026-05-04 03:46 | 43.41952 | -141.18742 | 30233 ft | 491 kts | 293° |
| 2026-05-04 03:46 | 43.45359 | -141.28615 | 30237 ft | 491 kts | 293° |
| 2026-05-04 03:47 | 43.48278 | -141.37101 | 30244 ft | 491 kts | 292° |
| 2026-05-04 03:47 | 43.51190 | -141.45595 | 30234 ft | 490 kts | 292° |
| 2026-05-04 03:48 | 43.53626 | -141.52717 | 30235 ft | 490 kts | 292° |
| 2026-05-04 03:48 | 43.56527 | -141.61228 | 30242 ft | 490 kts | 292° |
| 2026-05-04 03:49 | 43.59414 | -141.69724 | 30233 ft | 489 kts | 292° |
| 2026-05-04 03:49 | 43.62290 | -141.78209 | 30228 ft | 488 kts | 292° |
| 2026-05-04 03:50 | 43.65153 | -141.86687 | 30227 ft | 487 kts | 292° |
| 2026-05-04 03:50 | 43.67986 | -141.95105 | 30231 ft | 486 kts | 291° |
| 2026-05-04 03:51 | 43.70823 | -142.03556 | 30220 ft | 484 kts | 291° |
| 2026-05-04 03:51 | 43.73648 | -142.11997 | 30225 ft | 483 kts | 291° |
| 2026-05-04 03:52 | 43.76461 | -142.20430 | 30238 ft | 482 kts | 291° |
| 2026-05-04 03:52 | 43.79282 | -142.28924 | 30213 ft | 483 kts | 291° |
| 2026-05-04 03:53 | 43.82085 | -142.37377 | 30232 ft | 483 kts | 291° |
| 2026-05-04 03:53 | 43.84884 | -142.45849 | 30225 ft | 484 kts | 291° |
| 2026-05-04 03:54 | 43.87663 | -142.54288 | 30219 ft | 485 kts | 290° |
| 2026-05-04 03:54 | 43.90463 | -142.62820 | 30222 ft | 487 kts | 290° |
| 2026-05-04 03:55 | 43.93268 | -142.71390 | 30223 ft | 488 kts | 290° |
| 2026-05-04 03:55 | 43.96070 | -142.79983 | 30219 ft | 489 kts | 290° |
| 2026-05-04 03:56 | 43.98876 | -142.88610 | 30223 ft | 491 kts | 290° |
| 2026-05-04 03:56 | 44.01680 | -142.97265 | 30214 ft | 492 kts | 290° |
| 2026-05-04 03:57 | 44.04490 | -143.05967 | 30212 ft | 493 kts | 290° |
| 2026-05-04 03:57 | 44.07292 | -143.14667 | 30221 ft | 493 kts | 289° |
| 2026-05-04 03:58 | 44.11466 | -143.27695 | 30221 ft | 493 kts | 288° |
| 2026-05-04 03:58 | 44.14249 | -143.36431 | 30200 ft | 494 kts | 289° |
| 2026-05-04 03:59 | 44.17036 | -143.45165 | 30222 ft | 493 kts | 288° |
| 2026-05-04 03:59 | 44.19809 | -143.53901 | 30198 ft | 493 kts | 288° |
| 2026-05-04 04:00 | 44.22570 | -143.62637 | 30188 ft | 492 kts | 288° |
| 2026-05-04 04:00 | 44.25322 | -143.71372 | 30188 ft | 491 kts | 288° |
| 2026-05-04 04:01 | 44.28060 | -143.80097 | 30186 ft | 491 kts | 288° |
| 2026-05-04 04:01 | 44.30794 | -143.88833 | 30182 ft | 491 kts | 288° |
| 2026-05-04 04:02 | 44.33519 | -143.97572 | 30183 ft | 491 kts | 288° |
| 2026-05-04 04:02 | 44.36240 | -144.06328 | 30204 ft | 491 kts | 287° |
| 2026-05-04 04:03 | 44.38961 | -144.15113 | 30183 ft | 492 kts | 287° |
| 2026-05-04 04:03 | 44.41678 | -144.23915 | 30173 ft | 493 kts | 287° |
| 2026-05-04 04:04 | 44.44394 | -144.32742 | 30168 ft | 494 kts | 287° |
| 2026-05-04 04:04 | 44.47103 | -144.41576 | 30191 ft | 495 kts | 286° |
| 2026-05-04 04:05 | 44.49815 | -144.50459 | 30172 ft | 497 kts | 286° |
| 2026-05-04 04:05 | 44.52532 | -144.59384 | 30162 ft | 498 kts | 286° |
| 2026-05-04 04:06 | 44.55247 | -144.68329 | 30156 ft | 499 kts | 286° |
| 2026-05-04 04:06 | 44.57963 | -144.77314 | 30154 ft | 501 kts | 285° |
| 2026-05-04 04:07 | 44.60677 | -144.86322 | 30153 ft | 501 kts | 285° |
| 2026-05-04 04:07 | 44.63388 | -144.95347 | 30148 ft | 502 kts | 285° |
| 2026-05-04 04:08 | 44.66090 | -145.04377 | 30180 ft | 502 kts | 285° |
| 2026-05-04 04:08 | 44.68789 | -145.13430 | 30134 ft | 502 kts | 284° |
| 2026-05-04 04:09 | 44.71477 | -145.22483 | 30130 ft | 502 kts | 284° |
| 2026-05-04 04:09 | 44.74156 | -145.31534 | 30123 ft | 501 kts | 284° |
| 2026-05-04 04:10 | 44.76827 | -145.40592 | 30126 ft | 501 kts | 284° |
| 2026-05-04 04:10 | 44.79490 | -145.49657 | 30113 ft | 501 kts | 284° |
| 2026-05-04 04:11 | 44.82146 | -145.58729 | 30105 ft | 501 kts | 284° |
| 2026-05-04 04:11 | 44.84795 | -145.67810 | 30098 ft | 501 kts | 284° |
| 2026-05-04 04:12 | 44.87436 | -145.76900 | 30098 ft | 502 kts | 283° |
| 2026-05-04 04:12 | 44.90077 | -145.86022 | 30095 ft | 502 kts | 283° |
| 2026-05-04 04:13 | 44.92713 | -145.95156 | 30077 ft | 503 kts | 283° |
| 2026-05-04 04:13 | 44.95343 | -146.04301 | 30116 ft | 504 kts | 282° |
| 2026-05-04 04:14 | 44.97972 | -146.13485 | 30082 ft | 505 kts | 282° |
| 2026-05-04 04:14 | 45.00597 | -146.22690 | 30070 ft | 505 kts | 282° |
| 2026-05-04 04:15 | 45.03219 | -146.31911 | 30053 ft | 506 kts | 282° |
| 2026-05-04 04:15 | 45.05836 | -146.41155 | 30068 ft | 507 kts | 281° |
| 2026-05-04 04:16 | 45.08454 | -146.50434 | 30056 ft | 508 kts | 281° |
| 2026-05-04 04:16 | 45.11064 | -146.59716 | 30035 ft | 508 kts | 281° |
| 2026-05-04 04:17 | 45.13668 | -146.69010 | 30102 ft | 507 kts | 281° |
| 2026-05-04 04:17 | 45.16265 | -146.78321 | 30032 ft | 509 kts | 280° |
| 2026-05-04 04:18 | 45.18854 | -146.87642 | 30025 ft | 508 kts | 280° |
| 2026-05-04 04:18 | 45.21434 | -146.96961 | 30012 ft | 507 kts | 280° |
| 2026-05-04 04:19 | 45.24002 | -147.06273 | 30008 ft | 507 kts | 280° |
| 2026-05-04 04:19 | 45.26560 | -147.15585 | 29998 ft | 506 kts | 280° |
| 2026-05-04 04:20 | 45.29109 | -147.24904 | 30002 ft | 506 kts | 280° |
| 2026-05-04 04:20 | 45.31649 | -147.34223 | 29998 ft | 506 kts | 280° |
| 2026-05-04 04:21 | 45.34186 | -147.43571 | 30002 ft | 508 kts | 279° |
| 2026-05-04 04:21 | 45.36719 | -147.52939 | 29988 ft | 508 kts | 279° |
| 2026-05-04 04:22 | 45.39248 | -147.62325 | 29980 ft | 508 kts | 279° |
| 2026-05-04 04:22 | 45.41768 | -147.71712 | 30056 ft | 508 kts | 278° |
| 2026-05-04 04:23 | 45.44282 | -147.81123 | 29968 ft | 509 kts | 278° |
| 2026-05-04 04:23 | 45.46787 | -147.90524 | 29967 ft | 506 kts | 278° |
| 2026-05-04 04:24 | 45.49269 | -147.99876 | 29959 ft | 504 kts | 278° |
| 2026-05-04 04:24 | 45.51737 | -148.09230 | 30003 ft | 505 kts | 277° |
| 2026-05-04 04:25 | 45.54203 | -148.18620 | 29956 ft | 506 kts | 277° |
| 2026-05-04 04:25 | 45.56671 | -148.28043 | 29946 ft | 507 kts | 277° |
| 2026-05-04 04:26 | 45.59136 | -148.37486 | 29938 ft | 508 kts | 277° |
| 2026-05-04 04:26 | 45.61185 | -148.45364 | 29987 ft | 510 kts | 276° |
| 2026-05-04 04:27 | 45.64063 | -148.56489 | 29935 ft | 511 kts | 276° |
| 2026-05-04 04:27 | 45.66106 | -148.64404 | 29918 ft | 511 kts | 276° |
| 2026-05-04 04:28 | 45.68557 | -148.73939 | 29990 ft | 511 kts | 276° |
| 2026-05-04 04:28 | 45.71002 | -148.83504 | 29936 ft | 514 kts | 276° |
| 2026-05-04 04:29 | 45.73451 | -148.93121 | 29915 ft | 514 kts | 276° |
| 2026-05-04 04:29 | 45.75895 | -149.02745 | 29895 ft | 514 kts | 276° |
| 2026-05-04 04:30 | 45.78327 | -149.12373 | 29978 ft | 514 kts | 277° |
| 2026-05-04 04:30 | 45.80759 | -149.22047 | 29873 ft | 517 kts | 277° |
| 2026-05-04 04:31 | 45.83190 | -149.31739 | 29875 ft | 516 kts | 277° |
| 2026-05-04 04:31 | 45.85609 | -149.41431 | 29871 ft | 516 kts | 276° |
| 2026-05-04 04:32 | 45.88014 | -149.51127 | 29906 ft | 517 kts | 277° |
| 2026-05-04 04:32 | 45.90425 | -149.60867 | 29851 ft | 517 kts | 277° |
| 2026-05-04 04:33 | 45.92823 | -149.70598 | 29846 ft | 517 kts | 277° |
| 2026-05-04 04:33 | 45.95208 | -149.80322 | 29939 ft | 516 kts | 278° |
| 2026-05-04 04:34 | 45.97588 | -149.90078 | 29835 ft | 518 kts | 278° |
| 2026-05-04 04:34 | 45.99967 | -149.99857 | 29832 ft | 518 kts | 278° |
| 2026-05-04 04:35 | 46.02389 | -150.09616 | 29811 ft | 519 kts | 279° |
| 2026-05-04 04:35 | 46.04848 | -150.19370 | 29834 ft | 519 kts | 280° |
| 2026-05-04 04:36 | 46.07308 | -150.29164 | 29806 ft | 520 kts | 280° |
| 2026-05-04 04:36 | 46.09754 | -150.38968 | 29778 ft | 520 kts | 280° |
| 2026-05-04 04:37 | 46.14605 | -150.58606 | 29764 ft | 520 kts | 280° |
| 2026-05-04 04:38 | 46.17015 | -150.68434 | 29744 ft | 519 kts | 279° |
| 2026-05-04 04:38 | 46.19417 | -150.78264 | 29741 ft | 519 kts | 279° |
| 2026-05-04 04:39 | 46.21809 | -150.88100 | 29859 ft | 519 kts | 281° |
| 2026-05-04 04:39 | 46.24193 | -150.97948 | 29746 ft | 519 kts | 281° |
| 2026-05-04 04:40 | 46.26566 | -151.07776 | 29708 ft | 517 kts | 281° |
| 2026-05-04 04:40 | 46.28918 | -151.17568 | 29678 ft | 514 kts | 281° |
| 2026-05-04 04:41 | 46.31249 | -151.27318 | 29711 ft | 513 kts | 282° |
| 2026-05-04 04:41 | 46.33565 | -151.37056 | 29667 ft | 511 kts | 282° |
| 2026-05-04 04:42 | 46.35868 | -151.46782 | 29635 ft | 510 kts | 282° |
| 2026-05-04 04:42 | 46.38159 | -151.56500 | 29639 ft | 510 kts | 282° |
| 2026-05-04 04:43 | 46.40444 | -151.66230 | 29614 ft | 511 kts | 283° |
| 2026-05-04 04:43 | 46.42722 | -151.75978 | 29585 ft | 511 kts | 283° |
| 2026-05-04 04:44 | 46.44990 | -151.85726 | 29589 ft | 510 kts | 283° |
| 2026-05-04 04:44 | 46.47250 | -151.95482 | 29591 ft | 510 kts | 283° |
| 2026-05-04 04:45 | 46.49499 | -152.05230 | 29542 ft | 509 kts | 283° |
| 2026-05-04 04:47 | 46.57276 | -152.39295 | 29493 ft | 507 kts | 283° |
| 2026-05-04 04:47 | 46.59473 | -152.49018 | 29466 ft | 506 kts | 283° |
| 2026-05-04 04:48 | 46.61657 | -152.58727 | 29473 ft | 505 kts | 283° |
| 2026-05-04 04:49 | 46.67070 | -152.82982 | 29439 ft | 503 kts | 284° |
| 2026-05-04 04:49 | 46.69213 | -152.92665 | 29428 ft | 502 kts | 284° |
| 2026-05-04 04:50 | 46.71345 | -153.02340 | 29428 ft | 501 kts | 283° |
| 2026-05-04 04:50 | 46.73467 | -153.12020 | 29418 ft | 501 kts | 284° |
| 2026-05-04 04:51 | 46.75582 | -153.21705 | 29415 ft | 501 kts | 284° |
| 2026-05-04 04:51 | 46.77686 | -153.31383 | 29416 ft | 501 kts | 284° |
| 2026-05-04 04:52 | 46.79780 | -153.41064 | 29408 ft | 500 kts | 284° |
| 2026-05-04 04:52 | 46.81866 | -153.50754 | 29412 ft | 500 kts | 284° |
| 2026-05-04 04:53 | 46.83941 | -153.60436 | 29410 ft | 498 kts | 284° |
| 2026-05-04 04:53 | 46.85971 | -153.69952 | 29401 ft | 491 kts | 284° |
| 2026-05-04 04:54 | 46.87994 | -153.79485 | 29417 ft | 491 kts | 284° |
| 2026-05-04 04:54 | 46.90012 | -153.89038 | 29407 ft | 491 kts | 285° |
| 2026-05-04 04:55 | 46.92017 | -153.98574 | 29413 ft | 490 kts | 284° |
| 2026-05-04 04:55 | 46.94012 | -154.08104 | 29412 ft | 489 kts | 284° |
| 2026-05-04 04:56 | 46.95994 | -154.17620 | 29418 ft | 489 kts | 284° |
| 2026-05-04 04:56 | 46.97967 | -154.27134 | 29424 ft | 488 kts | 284° |
| 2026-05-04 04:57 | 46.99932 | -154.36655 | 29429 ft | 488 kts | 284° |
| 2026-05-04 04:57 | 47.01890 | -154.46189 | 29421 ft | 489 kts | 284° |
| 2026-05-04 04:58 | 47.03839 | -154.55727 | 29433 ft | 488 kts | 284° |
| 2026-05-04 04:58 | 47.05779 | -154.65262 | 29428 ft | 487 kts | 284° |
| 2026-05-04 04:59 | 47.07706 | -154.74782 | 29434 ft | 486 kts | 284° |
| 2026-05-04 04:59 | 47.09624 | -154.84297 | 29434 ft | 486 kts | 284° |
| 2026-05-04 05:00 | 47.11524 | -154.93780 | 29449 ft | 485 kts | 284° |
| 2026-05-04 05:01 | 47.14360 | -155.08008 | 29460 ft | 484 kts | 285° |
| 2026-05-04 05:01 | 47.16239 | -155.17489 | 29468 ft | 483 kts | 285° |
| 2026-05-04 05:02 | 47.18111 | -155.26985 | 29469 ft | 483 kts | 284° |
| 2026-05-04 05:02 | 47.19973 | -155.36474 | 29488 ft | 480 kts | 284° |
| 2026-05-04 05:03 | 47.21788 | -155.45792 | 29476 ft | 478 kts | 285° |
| 2026-05-04 05:04 | 47.25458 | -155.64724 | 29502 ft | 476 kts | 285° |
| 2026-05-04 05:04 | 47.27266 | -155.74115 | 29502 ft | 478 kts | 284° |
| 2026-05-04 05:06 | 47.34497 | -156.12181 | 29551 ft | 482 kts | 284° |
| 2026-05-04 05:07 | 47.36268 | -156.21620 | 29566 ft | 472 kts | 284° |
| 2026-05-04 05:07 | 47.38008 | -156.30970 | 29577 ft | 477 kts | 284° |
| 2026-05-04 05:09 | 47.45601 | -156.72200 | 29623 ft | 482 kts | 284° |
| 2026-05-04 05:10 | 47.47333 | -156.81736 | 29623 ft | 480 kts | 284° |
| 2026-05-04 05:10 | 47.49026 | -156.91112 | 29645 ft | 463 kts | 284° |
| 2026-05-04 05:11 | 47.50700 | -157.00421 | 29659 ft | 473 kts | 284° |
| 2026-05-04 05:11 | 47.52377 | -157.09816 | 29660 ft | 470 kts | 284° |
| 2026-05-04 05:12 | 47.54051 | -157.19230 | 29675 ft | 470 kts | 284° |
| 2026-05-04 05:12 | 47.55720 | -157.28667 | 29664 ft | 479 kts | 284° |
| 2026-05-04 05:13 | 47.57396 | -157.38178 | 29664 ft | 469 kts | 284° |
| 2026-05-04 05:13 | 47.59046 | -157.47595 | 29692 ft | 477 kts | 283° |
| 2026-05-04 05:14 | 47.60697 | -157.57108 | 29691 ft | 472 kts | 283° |
| 2026-05-04 05:14 | 47.62315 | -157.66435 | 29689 ft | 463 kts | 283° |
| 2026-05-04 05:15 | 47.63916 | -157.75722 | 29715 ft | 468 kts | 283° |
| 2026-05-04 05:15 | 47.65523 | -157.85104 | 29723 ft | 470 kts | 283° |
| 2026-05-04 05:16 | 47.67123 | -157.94493 | 29727 ft | 469 kts | 283° |
| 2026-05-04 05:16 | 47.68714 | -158.03880 | 29724 ft | 469 kts | 283° |
| 2026-05-04 05:17 | 47.70296 | -158.13262 | 29731 ft | 468 kts | 283° |
| 2026-05-04 05:17 | 47.71858 | -158.22576 | 29745 ft | 468 kts | 283° |
| 2026-05-04 05:18 | 47.73422 | -158.31957 | 29733 ft | 468 kts | 283° |
| 2026-05-04 05:18 | 47.74951 | -158.41360 | 29733 ft | 469 kts | 283° |
| 2026-05-04 05:19 | 47.76500 | -158.50650 | 29901 ft | 445 kts | 283° |
| 2026-05-04 05:19 | 47.77252 | -158.55120 | 29776 ft | 450 kts | 283° |
| 2026-05-04 05:19 | 47.78002 | -158.59672 | 29758 ft | 457 kts | 283° |
| 2026-05-04 05:20 | 47.79515 | -158.68980 | 29772 ft | 469 kts | 283° |
| 2026-05-04 05:20 | 47.81050 | -158.78464 | 29757 ft | 472 kts | 283° |
| 2026-05-04 05:21 | 47.82579 | -158.87944 | 29758 ft | 470 kts | 283° |
| 2026-05-04 05:21 | 47.84091 | -158.97371 | 29774 ft | 467 kts | 283° |
| 2026-05-04 05:22 | 47.85592 | -159.06763 | 29783 ft | 464 kts | 283° |
| 2026-05-04 05:22 | 47.86330 | -159.11314 | 30006 ft | 439 kts | 283° |
| 2026-05-04 05:22 | 47.87035 | -159.15749 | 29853 ft | 443 kts | 283° |
| 2026-05-04 05:23 | 47.88418 | -159.24627 | 29789 ft | 431 kts | 282° |
| 2026-05-04 05:23 | 47.89786 | -159.33458 | 29806 ft | 444 kts | 283° |
| 2026-05-04 05:24 | 47.91215 | -159.42534 | 29818 ft | 456 kts | 283° |
| 2026-05-04 05:24 | 47.92666 | -159.51864 | 29823 ft | 466 kts | 283° |
| 2026-05-04 05:25 | 47.94112 | -159.61243 | 29816 ft | 462 kts | 283° |
| 2026-05-04 05:25 | 47.95540 | -159.70556 | 29818 ft | 459 kts | 283° |
| 2026-05-04 05:26 | 47.96948 | -159.79796 | 29822 ft | 456 kts | 283° |
| 2026-05-04 05:26 | 47.98347 | -159.89021 | 29824 ft | 455 kts | 283° |
| 2026-05-04 05:28 | 48.03828 | -160.26415 | 29858 ft | 459 kts | 282° |
| 2026-05-04 05:29 | 48.05160 | -160.35740 | 29847 ft | 456 kts | 282° |
| 2026-05-04 05:29 | 48.06479 | -160.45022 | 29857 ft | 460 kts | 282° |
| 2026-05-04 05:31 | 48.10992 | -160.77220 | 29871 ft | 448 kts | 284° |
| 2026-05-04 05:31 | 48.11624 | -160.81778 | 29878 ft | 448 kts | 284° |
| 2026-05-04 05:32 | 48.12887 | -160.90944 | 29865 ft | 450 kts | 284° |
| 2026-05-04 05:33 | 48.14755 | -161.04614 | 29865 ft | 444 kts | 284° |
| 2026-05-04 05:33 | 48.15980 | -161.13638 | 29881 ft | 441 kts | 284° |
| 2026-05-04 05:34 | 48.17191 | -161.22615 | 29885 ft | 439 kts | 284° |
| 2026-05-04 05:34 | 48.18392 | -161.31576 | 29865 ft | 439 kts | 286° |
| 2026-05-04 05:35 | 48.19584 | -161.40506 | 29893 ft | 436 kts | 285° |
| 2026-05-04 05:35 | 48.20759 | -161.49401 | 29897 ft | 434 kts | 285° |
| 2026-05-04 05:36 | 48.21926 | -161.58276 | 29901 ft | 433 kts | 285° |
| 2026-05-04 05:36 | 48.23085 | -161.67142 | 29905 ft | 433 kts | 285° |
| 2026-05-04 05:37 | 48.24236 | -161.76009 | 29898 ft | 432 kts | 286° |
| 2026-05-04 05:37 | 48.25377 | -161.84855 | 29908 ft | 431 kts | 286° |
| 2026-05-04 05:38 | 48.27073 | -161.98104 | 29923 ft | 431 kts | 286° |
| 2026-05-04 05:38 | 48.28195 | -162.06935 | 29932 ft | 431 kts | 286° |
| 2026-05-04 05:39 | 48.29864 | -162.20187 | 29931 ft | 431 kts | 285° |
| 2026-05-04 05:40 | 48.31520 | -162.33462 | 29937 ft | 431 kts | 285° |
| 2026-05-04 05:40 | 48.32615 | -162.42318 | 29938 ft | 432 kts | 285° |
| 2026-05-04 05:41 | 48.33705 | -162.51188 | 29940 ft | 432 kts | 285° |
| 2026-05-04 05:41 | 48.34791 | -162.60066 | 29944 ft | 432 kts | 285° |
| 2026-05-04 05:42 | 48.35870 | -162.68972 | 29947 ft | 433 kts | 285° |
| 2026-05-04 05:42 | 48.36943 | -162.77896 | 29952 ft | 435 kts | 285° |
| 2026-05-04 05:43 | 48.38014 | -162.86853 | 29952 ft | 435 kts | 285° |
| 2026-05-04 05:45 | 48.42231 | -163.22739 | 29967 ft | 437 kts | 284° |
| 2026-05-04 05:47 | 48.46356 | -163.58868 | 31942 ft | 438 kts | 283° |
| 2026-05-04 05:47 | 48.47367 | -163.67890 | 31970 ft | 436 kts | 283° |
| 2026-05-04 05:48 | 48.48368 | -163.76886 | 31980 ft | 434 kts | 283° |
| 2026-05-04 05:48 | 48.49359 | -163.85860 | 31971 ft | 434 kts | 282° |
| 2026-05-04 05:49 | 48.50343 | -163.94830 | 31987 ft | 434 kts | 282° |
| 2026-05-04 05:49 | 48.51321 | -164.03806 | 31989 ft | 434 kts | 282° |
| 2026-05-04 05:51 | 48.55176 | -164.39908 | 31994 ft | 437 kts | 282° |
| 2026-05-04 05:52 | 48.55972 | -164.47504 | 31996 ft | 437 kts | 282° |
| 2026-05-04 05:52 | 48.56915 | -164.56568 | 32003 ft | 437 kts | 282° |
| 2026-05-04 05:54 | 48.60618 | -164.92878 | 32016 ft | 437 kts | 281° |
| 2026-05-04 05:55 | 48.61526 | -165.01962 | 32016 ft | 437 kts | 281° |
| 2026-05-04 05:55 | 48.62426 | -165.11048 | 32002 ft | 437 kts | 281° |
| 2026-05-04 05:56 | 48.63315 | -165.20085 | 32020 ft | 437 kts | 281° |
| 2026-05-04 05:56 | 48.64207 | -165.29239 | 32021 ft | 438 kts | 281° |
| 2026-05-04 05:57 | 48.65087 | -165.38345 | 32022 ft | 438 kts | 281° |
| 2026-05-04 05:57 | 48.65955 | -165.47405 | 32028 ft | 438 kts | 281° |
| 2026-05-04 05:58 | 48.66822 | -165.56531 | 32020 ft | 438 kts | 281° |
| 2026-05-04 05:58 | 48.67682 | -165.65665 | 32031 ft | 439 kts | 281° |
| 2026-05-04 05:59 | 48.68536 | -165.74816 | 32031 ft | 439 kts | 281° |
| 2026-05-04 05:59 | 48.69384 | -165.83979 | 32033 ft | 439 kts | 280° |
| 2026-05-04 06:00 | 48.70224 | -165.93139 | 32034 ft | 440 kts | 280° |
| 2026-05-04 06:00 | 48.71058 | -166.02312 | 32034 ft | 440 kts | 280° |
| 2026-05-04 06:01 | 48.71885 | -166.11497 | 32038 ft | 441 kts | 280° |
| 2026-05-04 06:03 | 48.75131 | -166.48394 | 32043 ft | 442 kts | 279° |
| 2026-05-04 06:05 | 48.78643 | -166.89960 | 32046 ft | 442 kts | 279° |
| 2026-05-04 06:06 | 48.79404 | -166.99223 | 32052 ft | 443 kts | 279° |
| 2026-05-04 06:06 | 48.80160 | -167.08510 | 32050 ft | 444 kts | 279° |
| 2026-05-04 06:07 | 48.80910 | -167.17819 | 32042 ft | 445 kts | 279° |
| 2026-05-04 06:07 | 48.81653 | -167.27148 | 32037 ft | 446 kts | 278° |
| 2026-05-04 06:08 | 48.82393 | -167.36520 | 32057 ft | 448 kts | 278° |
| 2026-05-04 06:08 | 48.83128 | -167.45934 | 32055 ft | 450 kts | 278° |
| 2026-05-04 06:09 | 48.83858 | -167.55382 | 32055 ft | 451 kts | 278° |
| 2026-05-04 06:11 | 48.86706 | -167.93304 | 32062 ft | 452 kts | 277° |
| 2026-05-04 06:13 | 48.89432 | -168.31296 | 32070 ft | 453 kts | 277° |
| 2026-05-04 06:14 | 48.91721 | -168.64658 | 32066 ft | 454 kts | 276° |
| 2026-05-04 06:15 | 48.92358 | -168.74209 | 32071 ft | 454 kts | 276° |
| 2026-05-04 06:15 | 48.92987 | -168.83760 | 32071 ft | 454 kts | 276° |
| 2026-05-04 06:16 | 48.93608 | -168.93313 | 32068 ft | 454 kts | 276° |
| 2026-05-04 06:16 | 48.94221 | -169.02868 | 32071 ft | 453 kts | 276° |
| 2026-05-04 06:17 | 48.94825 | -169.12408 | 32068 ft | 453 kts | 276° |
| 2026-05-04 06:17 | 48.95421 | -169.21939 | 32070 ft | 452 kts | 276° |
| 2026-05-04 06:18 | 48.96008 | -169.31458 | 32070 ft | 451 kts | 276° |
| 2026-05-04 06:20 | 48.98271 | -169.69445 | 32071 ft | 452 kts | 275° |
| 2026-05-04 06:21 | 48.99628 | -169.93288 | 32071 ft | 453 kts | 275° |
| 2026-05-04 06:22 | 48.99902 | -170.02880 | 32058 ft | 454 kts | 267° |
| 2026-05-04 06:25 | 48.95897 | -170.70271 | 32065 ft | 458 kts | 265° |
| 2026-05-04 06:26 | 48.95299 | -170.79933 | 32069 ft | 458 kts | 265° |
| 2026-05-04 06:26 | 48.94695 | -170.89574 | 32062 ft | 458 kts | 264° |
| 2026-05-04 06:27 | 48.93151 | -171.13653 | 32063 ft | 457 kts | 264° |
| 2026-05-04 06:28 | 48.92519 | -171.23274 | 32061 ft | 458 kts | 264° |
| 2026-05-04 06:28 | 48.91879 | -171.32903 | 32064 ft | 458 kts | 264° |
| 2026-05-04 06:29 | 48.91230 | -171.42538 | 32059 ft | 459 kts | 264° |
| 2026-05-04 06:29 | 48.90572 | -171.52193 | 32060 ft | 459 kts | 264° |
| 2026-05-04 06:30 | 48.89905 | -171.61850 | 32056 ft | 460 kts | 264° |
| 2026-05-04 06:30 | 48.89230 | -171.71510 | 32052 ft | 460 kts | 263° |
| 2026-05-04 06:31 | 48.88545 | -171.81190 | 32050 ft | 461 kts | 263° |
| 2026-05-04 06:31 | 48.87850 | -171.90895 | 32050 ft | 462 kts | 263° |
| 2026-05-04 06:33 | 48.85108 | -172.28115 | 32042 ft | 464 kts | 262° |
| 2026-05-04 06:34 | 48.84370 | -172.37857 | 32039 ft | 465 kts | 262° |
| 2026-05-04 06:34 | 48.83623 | -172.47605 | 32029 ft | 465 kts | 262° |
| 2026-05-04 06:36 | 48.80549 | -172.86604 | 32019 ft | 465 kts | 261° |
| 2026-05-04 06:37 | 48.79761 | -172.96342 | 32018 ft | 465 kts | 261° |
| 2026-05-04 06:37 | 48.78964 | -173.06085 | 32018 ft | 466 kts | 261° |
| 2026-05-04 06:38 | 48.78157 | -173.15835 | 32012 ft | 466 kts | 261° |
| 2026-05-04 06:40 | 48.74844 | -173.54870 | 32002 ft | 468 kts | 260° |
| 2026-05-04 06:40 | 48.73993 | -173.64643 | 31992 ft | 468 kts | 260° |
| 2026-05-04 06:41 | 48.73132 | -173.74436 | 31982 ft | 468 kts | 260° |
| 2026-05-04 06:41 | 48.72270 | -173.84141 | 31981 ft | 469 kts | 260° |
| 2026-05-04 06:42 | 48.71393 | -173.93928 | 31983 ft | 470 kts | 259° |
| 2026-05-04 06:44 | 48.67783 | -174.33202 | 31947 ft | 471 kts | 259° |
| 2026-05-04 06:44 | 48.66859 | -174.43029 | 31950 ft | 472 kts | 258° |
| 2026-05-04 06:45 | 48.65925 | -174.52859 | 31940 ft | 472 kts | 258° |
| 2026-05-04 06:45 | 48.64982 | -174.62690 | 31932 ft | 472 kts | 258° |
| 2026-05-04 06:46 | 48.64031 | -174.72521 | 31932 ft | 472 kts | 258° |
| 2026-05-04 06:46 | 48.63073 | -174.82334 | 31937 ft | 473 kts | 258° |
| 2026-05-04 06:48 | 48.59136 | -175.21748 | 31900 ft | 475 kts | 258° |
| 2026-05-04 06:50 | 48.55057 | -175.61184 | 31888 ft | 474 kts | 257° |
| 2026-05-04 06:51 | 48.54019 | -175.71010 | 31864 ft | 475 kts | 257° |
| 2026-05-04 06:51 | 48.52968 | -175.80863 | 31872 ft | 475 kts | 257° |
| 2026-05-04 06:52 | 48.51910 | -175.90704 | 31866 ft | 476 kts | 257° |
| 2026-05-04 06:52 | 48.50841 | -176.00570 | 31865 ft | 477 kts | 256° |
| 2026-05-04 06:53 | 48.49763 | -176.10440 | 31851 ft | 477 kts | 257° |
| 2026-05-04 06:53 | 48.48675 | -176.20317 | 31845 ft | 478 kts | 256° |
| 2026-05-04 06:54 | 48.47577 | -176.30194 | 31835 ft | 478 kts | 256° |
| 2026-05-04 06:54 | 48.46472 | -176.40069 | 31828 ft | 478 kts | 256° |
| 2026-05-04 06:55 | 48.45359 | -176.49928 | 31824 ft | 477 kts | 256° |
| 2026-05-04 06:55 | 48.44237 | -176.59784 | 31826 ft | 477 kts | 256° |
| 2026-05-04 06:57 | 48.39678 | -176.99068 | 31829 ft | 476 kts | 257° |
| 2026-05-04 06:58 | 48.38519 | -177.08859 | 31788 ft | 475 kts | 256° |
| 2026-05-04 06:58 | 48.37359 | -177.18606 | 31785 ft | 473 kts | 257° |
| 2026-05-04 06:59 | 48.36192 | -177.28309 | 31771 ft | 471 kts | 257° |
| 2026-05-04 06:59 | 48.35022 | -177.37981 | 31768 ft | 470 kts | 257° |
| 2026-05-04 07:01 | 48.30247 | -177.76717 | 31770 ft | 472 kts | 257° |
| 2026-05-04 07:02 | 48.29031 | -177.86399 | 31775 ft | 472 kts | 257° |
| 2026-05-04 07:02 | 48.27816 | -177.96020 | 31759 ft | 472 kts | 258° |
| 2026-05-04 07:03 | 48.26576 | -178.05762 | 31759 ft | 472 kts | 258° |
| 2026-05-04 07:03 | 48.25337 | -178.15428 | 31759 ft | 472 kts | 258° |
| 2026-05-04 07:04 | 48.24088 | -178.25102 | 31759 ft | 472 kts | 257° |
| 2026-05-04 07:04 | 48.22831 | -178.34766 | 31762 ft | 472 kts | 258° |
| 2026-05-04 07:05 | 48.21569 | -178.44413 | 31753 ft | 471 kts | 258° |
| 2026-05-04 07:05 | 48.20311 | -178.53960 | 31755 ft | 469 kts | 258° |
| 2026-05-04 07:06 | 48.18398 | -178.68353 | 31749 ft | 466 kts | 258° |
| 2026-05-04 07:07 | 48.17130 | -178.77809 | 31757 ft | 465 kts | 258° |
| 2026-05-04 07:09 | 48.11959 | -179.15764 | 31752 ft | 465 kts | 258° |
| 2026-05-04 07:09 | 48.10645 | -179.25257 | 31743 ft | 466 kts | 258° |
| 2026-05-04 07:10 | 48.09323 | -179.34737 | 31728 ft | 465 kts | 258° |
| 2026-05-04 07:12 | 48.03963 | -179.72596 | 31725 ft | 465 kts | 257° |
| 2026-05-04 07:12 | 48.02605 | -179.82041 | 31736 ft | 465 kts | 257° |
| 2026-05-04 07:13 | 48.01239 | -179.91487 | 31732 ft | 465 kts | 257° |
| 2026-05-04 07:13 | 47.99796 | 179.99108 | 31716 ft | 465 kts | 253° |
| 2026-05-04 07:14 | 47.94662 | 179.78016 | 31718 ft | 464 kts | 250° |
| 2026-05-04 07:15 | 47.92082 | 179.67521 | 31722 ft | 464 kts | 250° |
| 2026-05-04 07:15 | 47.89865 | 179.58500 | 31733 ft | 464 kts | 250° |
| 2026-05-04 07:16 | 47.88002 | 179.50945 | 31721 ft | 464 kts | 250° |
| 2026-05-04 07:16 | 47.85772 | 179.41934 | 31713 ft | 463 kts | 250° |
| 2026-05-04 07:17 | 47.83536 | 179.32937 | 31718 ft | 463 kts | 250° |
| 2026-05-04 07:17 | 47.81294 | 179.23953 | 31713 ft | 463 kts | 250° |
| 2026-05-04 07:18 | 47.79043 | 179.14973 | 31734 ft | 462 kts | 250° |
| 2026-05-04 07:18 | 47.76792 | 179.06026 | 31710 ft | 461 kts | 250° |
| 2026-05-04 07:19 | 47.74544 | 178.97122 | 31701 ft | 460 kts | 250° |
| 2026-05-04 07:19 | 47.72291 | 178.88239 | 31715 ft | 459 kts | 250° |
| 2026-05-04 07:20 | 47.70038 | 178.79388 | 31706 ft | 458 kts | 250° |
| 2026-05-04 07:20 | 47.67778 | 178.70543 | 31719 ft | 458 kts | 250° |
| 2026-05-04 07:22 | 47.58661 | 178.35206 | 31702 ft | 459 kts | 249° |
| 2026-05-04 07:23 | 47.56364 | 178.26389 | 31708 ft | 458 kts | 250° |
| 2026-05-04 07:23 | 47.54063 | 178.17592 | 31695 ft | 458 kts | 250° |
| 2026-05-04 07:24 | 47.51762 | 178.08823 | 31692 ft | 457 kts | 250° |
| 2026-05-04 07:24 | 47.49457 | 178.00076 | 31705 ft | 456 kts | 250° |
| 2026-05-04 07:26 | 47.40188 | 177.65223 | 31687 ft | 455 kts | 250° |
| 2026-05-04 07:27 | 47.37857 | 177.56543 | 31689 ft | 455 kts | 250° |
| 2026-05-04 07:27 | 47.35520 | 177.47867 | 31680 ft | 455 kts | 250° |
| 2026-05-04 07:28 | 47.33179 | 177.39209 | 31689 ft | 454 kts | 250° |
| 2026-05-04 07:28 | 47.30836 | 177.30581 | 31691 ft | 453 kts | 250° |
| 2026-05-04 07:29 | 47.28493 | 177.21979 | 31694 ft | 452 kts | 250° |
| 2026-05-04 07:29 | 47.26144 | 177.13386 | 31684 ft | 452 kts | 250° |
| 2026-05-04 07:30 | 47.23791 | 177.04814 | 31697 ft | 452 kts | 251° |
| 2026-05-04 07:30 | 47.21433 | 176.96250 | 31680 ft | 452 kts | 250° |
| 2026-05-04 07:31 | 47.19067 | 176.87685 | 31674 ft | 452 kts | 250° |
| 2026-05-04 07:33 | 47.09530 | 176.53483 | 31672 ft | 453 kts | 251° |
| 2026-05-04 07:33 | 47.07128 | 176.44947 | 31677 ft | 453 kts | 251° |
| 2026-05-04 07:34 | 47.04719 | 176.36414 | 31668 ft | 453 kts | 251° |
| 2026-05-04 07:34 | 47.02301 | 176.27882 | 31668 ft | 453 kts | 250° |
| 2026-05-04 07:35 | 46.99878 | 176.19360 | 31669 ft | 453 kts | 250° |
| 2026-05-04 07:35 | 46.97451 | 176.10852 | 31669 ft | 453 kts | 250° |
| 2026-05-04 07:36 | 46.95014 | 176.02344 | 31665 ft | 453 kts | 250° |
| 2026-05-04 07:38 | 46.85258 | 175.68568 | 31658 ft | 448 kts | 251° |
| 2026-05-04 07:38 | 46.82819 | 175.60196 | 31661 ft | 447 kts | 251° |
| 2026-05-04 07:39 | 46.80382 | 175.51859 | 31647 ft | 446 kts | 251° |
| 2026-05-04 07:39 | 46.77939 | 175.43530 | 31653 ft | 446 kts | 251° |
| 2026-05-04 07:40 | 46.75494 | 175.35220 | 31658 ft | 446 kts | 251° |
| 2026-05-04 07:40 | 46.73038 | 175.26902 | 31657 ft | 447 kts | 251° |
| 2026-05-04 07:41 | 46.70573 | 175.18581 | 31666 ft | 448 kts | 251° |
| 2026-05-04 07:41 | 46.68098 | 175.10252 | 31651 ft | 448 kts | 252° |
| 2026-05-04 07:42 | 46.65615 | 175.01929 | 31647 ft | 448 kts | 252° |
| 2026-05-04 07:42 | 46.63132 | 174.93638 | 31653 ft | 447 kts | 252° |
| 2026-05-04 07:43 | 46.60649 | 174.85372 | 31662 ft | 446 kts | 252° |
| 2026-05-04 07:43 | 46.58164 | 174.77122 | 31662 ft | 445 kts | 252° |
| 2026-05-04 07:44 | 46.55678 | 174.68901 | 31659 ft | 444 kts | 253° |
| 2026-05-04 07:44 | 46.53192 | 174.60702 | 31659 ft | 443 kts | 253° |
| 2026-05-04 07:45 | 46.50705 | 174.52525 | 31668 ft | 443 kts | 252° |
| 2026-05-04 07:45 | 46.48210 | 174.44349 | 31668 ft | 443 kts | 252° |
| 2026-05-04 07:46 | 46.45706 | 174.36173 | 31636 ft | 443 kts | 253° |
| 2026-05-04 07:46 | 46.43200 | 174.28020 | 31664 ft | 442 kts | 253° |
| 2026-05-04 07:47 | 46.40699 | 174.19906 | 31672 ft | 440 kts | 253° |
| 2026-05-04 07:49 | 46.30728 | 173.87822 | 31674 ft | 434 kts | 254° |
| 2026-05-04 07:49 | 46.28244 | 173.79884 | 31688 ft | 432 kts | 254° |
| 2026-05-04 07:50 | 46.25759 | 173.71969 | 31684 ft | 432 kts | 254° |
| 2026-05-04 07:50 | 46.23268 | 173.64060 | 31686 ft | 433 kts | 254° |
| 2026-05-04 07:51 | 46.20768 | 173.56150 | 31683 ft | 432 kts | 255° |
| 2026-05-04 07:51 | 46.18269 | 173.48269 | 31644 ft | 432 kts | 255° |
| 2026-05-04 07:52 | 46.15775 | 173.40431 | 31680 ft | 429 kts | 255° |
| 2026-05-04 07:52 | 46.13286 | 173.32633 | 31702 ft | 427 kts | 255° |
| 2026-05-04 07:54 | 46.03379 | 173.01803 | 31716 ft | 421 kts | 256° |
| 2026-05-04 07:55 | 46.01326 | 172.95458 | 31720 ft | 421 kts | 256° |
| 2026-05-04 07:55 | 45.98848 | 172.87819 | 31721 ft | 422 kts | 256° |
| 2026-05-04 07:56 | 45.95965 | 172.78975 | 31707 ft | 419 kts | 257° |
| 2026-05-04 07:56 | 45.93897 | 172.72645 | 31718 ft | 417 kts | 257° |
| 2026-05-04 07:57 | 45.91039 | 172.63931 | 31720 ft | 413 kts | 258° |
| 2026-05-04 07:57 | 45.88993 | 172.57700 | 31729 ft | 411 kts | 258° |
| 2026-05-04 07:58 | 45.86560 | 172.50305 | 31737 ft | 409 kts | 258° |
| 2026-05-04 07:58 | 45.84126 | 172.42928 | 31745 ft | 409 kts | 258° |
| 2026-05-04 07:59 | 45.81688 | 172.35560 | 31763 ft | 409 kts | 258° |
| 2026-05-04 07:59 | 45.79240 | 172.28183 | 31759 ft | 411 kts | 258° |
| 2026-05-04 08:00 | 45.76776 | 172.20788 | 31755 ft | 412 kts | 258° |
| 2026-05-04 08:02 | 45.67049 | 171.91798 | 31765 ft | 398 kts | 260° |
| 2026-05-04 08:02 | 45.64645 | 171.84675 | 31766 ft | 397 kts | 260° |
| 2026-05-04 08:03 | 45.62244 | 171.77584 | 31777 ft | 396 kts | 260° |
| 2026-05-04 08:03 | 45.59874 | 171.70621 | 31766 ft | 390 kts | 261° |
| 2026-05-04 08:04 | 45.57497 | 171.63635 | 31785 ft | 388 kts | 261° |
| 2026-05-04 08:04 | 45.55535 | 171.57873 | 31788 ft | 388 kts | 261° |